createdAt,value
2022-09-04T00:02:53.062Z,104
2022-09-04T00:08:39.789Z,96
2022-09-04T00:14:20.309Z,100
2022-09-04T00:25:41.095Z,102
2022-09-04T00:31:22.223Z,94
2022-09-04T00:37:03.312Z,104
2022-09-04T00:42:43.394Z,98
2022-09-04T00:48:24.293Z,94
2022-09-04T00:54:04.775Z,102
2022-09-04T00:59:44.963Z,92
2022-09-04T01:05:29.229Z,98
2022-09-04T01:11:09.828Z,100
2022-09-04T01:16:51.450Z,102
2022-09-04T01:22:32.032Z,90
2022-09-04T01:28:12.280Z,96
2022-09-04T01:33:52.759Z,110
2022-09-04T01:50:57.837Z,100
2022-09-04T01:56:37.928Z,104
2022-09-04T02:02:18.849Z,104
2022-09-04T02:07:59.043Z,96
2022-09-04T02:13:39.250Z,90
2022-09-04T02:19:19.693Z,98
2022-09-04T02:24:59.853Z,102
2022-09-04T02:30:40.090Z,100
2022-09-04T02:36:20.589Z,100
2022-09-04T02:42:01.158Z,90
2022-09-04T02:47:41.209Z,102
2022-09-04T02:53:21.596Z,94
2022-09-04T02:59:01.984Z,100
2022-09-04T03:04:42.193Z,94
2022-09-04T03:10:22.435Z,100
2022-09-04T03:16:04.007Z,100
2022-09-04T03:21:44.349Z,92
2022-09-04T03:27:24.912Z,98
2022-09-04T03:38:45.210Z,96
2022-09-04T03:44:25.492Z,100
2022-09-04T03:50:05.895Z,100
2022-09-04T03:55:46.194Z,90
2022-09-04T04:01:27.321Z,98
2022-09-04T04:07:07.577Z,104
2022-09-04T04:12:50.581Z,102
2022-09-04T04:18:31.132Z,102
2022-09-04T04:24:11.439Z,102
2022-09-04T04:29:51.570Z,94
2022-09-04T04:35:31.816Z,92
2022-09-04T04:41:12.147Z,92
2022-09-04T04:46:53.255Z,102
2022-09-04T04:52:33.371Z,90
2022-09-04T04:58:13.754Z,104
2022-09-04T05:03:54.119Z,104
2022-09-04T05:09:34.466Z,88
2022-09-04T05:15:15.016Z,100
2022-09-04T05:32:16.042Z,100
2022-09-04T05:37:56.600Z,98
2022-09-04T05:43:36.896Z,96
2022-09-04T05:49:17.538Z,92
2022-09-04T05:54:58.364Z,104
2022-09-04T06:00:38.959Z,98
2022-09-04T06:06:19.824Z,106
2022-09-04T06:12:01.236Z,102
2022-09-04T06:17:41.675Z,104
2022-09-04T06:23:22.219Z,110
2022-09-04T06:29:06.474Z,100
2022-09-04T06:34:46.897Z,110
2022-09-04T06:40:27.361Z,106
2022-09-04T06:46:08.101Z,96
2022-09-04T06:51:49.555Z,102
2022-09-04T06:57:30.366Z,106
2022-09-04T07:03:10.919Z,94
2022-09-04T07:14:31.331Z,82
2022-09-04T07:20:15.666Z,90
2022-09-04T07:25:55.800Z,94
2022-09-04T07:31:36.812Z,112
2022-09-04T07:37:17.051Z,100
2022-09-04T07:42:59.476Z,94
2022-09-04T07:48:39.965Z,94
2022-09-04T07:54:23.923Z,72
2022-09-04T08:00:05.035Z,18
2022-09-04T08:05:44.512Z,28
2022-09-04T08:11:25.008Z,14
2022-09-04T08:17:06.038Z,16
2022-09-04T08:22:46.126Z,20
2022-09-04T08:28:27.139Z,16
2022-09-04T08:34:07.354Z,30
2022-09-04T08:39:48.409Z,22
2022-09-04T08:45:31.129Z,18
2022-09-04T08:57:02.453Z,6
2022-09-04T09:02:48.570Z,10
2022-09-04T09:08:33.207Z,4
2022-09-04T09:14:13.611Z,2
2022-09-04T09:19:54.030Z,0
2022-09-04T09:25:33.948Z,24
2022-09-04T09:31:15.239Z,26
2022-09-04T09:36:56.468Z,14
2022-09-04T09:42:36.142Z,0
2022-09-04T09:48:16.620Z,2
2022-09-04T09:53:57.972Z,2
2022-09-04T09:59:39.068Z,2
2022-09-04T10:05:19.356Z,2
2022-09-04T10:10:59.646Z,2
2022-09-04T10:16:40.504Z,2
2022-09-04T10:22:20.905Z,2
2022-09-04T10:28:01.421Z,4
2022-09-04T10:33:41.721Z,0
2022-09-04T10:39:22.427Z,4
2022-09-04T10:50:48.972Z,14
2022-09-04T10:56:28.640Z,68
2022-09-04T11:02:09.622Z,2
2022-09-04T11:07:51.203Z,0
2022-09-04T11:13:32.660Z,16
2022-09-04T11:24:17.320Z,6
2022-09-04T11:29:58.255Z,20
2022-09-04T11:35:38.464Z,22
2022-09-04T11:41:18.366Z,2
2022-09-04T11:46:58.859Z,16
2022-09-04T11:52:38.957Z,20
2022-09-04T11:58:18.746Z,16
2022-09-04T12:03:59.845Z,14
2022-09-04T12:09:40.060Z,6
2022-09-04T12:15:20.913Z,14
2022-09-04T12:21:07.386Z,20
2022-09-04T12:27:05.641Z,8
2022-09-04T12:32:46.338Z,22
2022-09-04T12:38:26.594Z,12
2022-09-04T12:49:46.789Z,16
2022-09-04T12:55:36.954Z,22
2022-09-04T13:01:18.592Z,36
2022-09-04T13:06:58.806Z,2
2022-09-04T13:12:39.759Z,0
2022-09-04T13:18:21.341Z,0
2022-09-04T13:24:04.501Z,0
2022-09-04T13:29:48.404Z,28
2022-09-04T13:35:28.571Z,24
2022-09-04T13:41:11.459Z,88
2022-09-04T13:46:58.436Z,26
2022-09-04T13:52:38.744Z,106
2022-09-04T13:58:19.786Z,84
2022-09-04T14:04:05.671Z,76
2022-09-04T14:09:48.113Z,12
2022-09-04T14:15:28.749Z,26
2022-09-04T14:26:58.873Z,34
2022-09-04T14:32:43.870Z,44
2022-09-04T14:38:28.489Z,106
2022-09-04T14:44:08.813Z,94
2022-09-04T14:49:48.624Z,104
2022-09-04T14:55:28.788Z,98
2022-09-04T15:01:08.437Z,92
2022-09-04T15:07:12.757Z,94
2022-09-04T15:12:53.058Z,92
2022-09-04T15:18:33.422Z,102
2022-09-04T15:24:14.224Z,90
2022-09-04T15:30:04.191Z,90
2022-09-04T15:35:44.665Z,88
2022-09-04T15:41:25.003Z,94
2022-09-04T15:47:05.733Z,80
2022-09-04T15:52:46.235Z,94
2022-09-04T16:04:07.825Z,82
2022-09-04T16:09:48.109Z,100
2022-09-04T16:15:28.468Z,90
2022-09-04T16:21:08.657Z,98
2022-09-04T16:26:49.406Z,90
2022-09-04T16:38:09.582Z,76
2022-09-04T16:43:49.818Z,104
2022-09-04T16:49:29.980Z,102
2022-09-04T16:55:10.160Z,94
2022-09-04T17:00:50.198Z,90
2022-09-04T17:06:30.398Z,88
2022-09-04T17:12:18.510Z,98
2022-09-04T17:18:01.340Z,82
2022-09-04T17:29:49.103Z,92
2022-09-04T17:42:12.967Z,92
2022-09-04T17:47:54.351Z,90
2022-09-04T17:53:35.614Z,94
2022-09-04T17:59:15.712Z,90
2022-09-04T18:04:55.663Z,84
2022-09-04T18:10:42.909Z,92
2022-09-04T18:16:24.245Z,90
2022-09-04T18:22:34.395Z,86
2022-09-04T18:28:15.007Z,82
2022-09-04T18:51:24.527Z,98
2022-09-04T19:02:54.563Z,82
2022-09-04T19:08:34.710Z,94
2022-09-04T19:14:14.786Z,86
2022-09-04T19:19:59.334Z,80
2022-09-04T19:25:55.519Z,70
2022-09-04T19:31:36.382Z,76
2022-09-04T19:46:43.836Z,76
2022-09-04T20:09:58.783Z,78
2022-09-04T20:15:39.597Z,90
2022-09-04T20:21:20.002Z,78
2022-09-04T20:27:00.915Z,80
2022-09-04T20:32:56.185Z,76
2022-09-04T20:38:43.247Z,78
2022-09-04T20:44:24.193Z,86
2022-09-04T20:53:24.373Z,72
2022-09-04T21:03:33.234Z,80
2022-09-04T21:14:57.162Z,76
2022-09-04T21:21:04.487Z,86
2022-09-04T21:26:47.131Z,80
2022-09-04T21:32:29.657Z,72
2022-09-04T21:38:10.681Z,70
2022-09-04T21:43:50.854Z,58
2022-09-04T21:49:34.215Z,68
2022-09-04T22:03:04.147Z,68
2022-09-04T22:13:55.986Z,104
2022-09-04T22:25:20.020Z,80
2022-09-04T22:31:01.048Z,102
2022-09-04T22:36:41.103Z,76
2022-09-04T22:42:21.393Z,70
2022-09-04T22:48:01.635Z,90
2022-09-04T22:53:41.879Z,96
2022-09-04T22:59:31.266Z,94
2022-09-04T23:05:11.623Z,66
2022-09-04T23:14:20.038Z,80
2022-09-04T23:27:04.872Z,96
2022-09-04T23:38:26.574Z,82
2022-09-04T23:44:06.901Z,78
2022-09-04T23:49:47.728Z,74
2022-09-04T23:55:50.386Z,78
